Moose Factory, Canada
Current Conditions -  °F | °C
As of 8:00 PM on Sunday 23 Nov 2014 (Local Time) from CYMO Reporting Station
Light Snow Light Snow  
Wind Chill:   Ceiling: 2200
Heat Index: 23°   Visibility: 1.5mi
Dew Point: 21°   Wind: 20mph
Humidity: 93%   Direction: 70°ENE
Pressure: 29.69"   Gusts: NA
Location:  51.26°N, 80.6°W
Report Text: CYMO 240100Z AUTO 07017KT 1 1/2SM -SN OVC022 M05/M06 A2969 RMK SLP055
Loading
Personal Weather Stations






























Interactive Weather Map New forecast layout! Learn more

10-Day Weather Forecast

Advertisements
Track Severe Weather on mobile